Zeeland, Netherlands
Current Conditions -  °F | °C
As of 1:25 PM on Friday 24 Oct 2014 (Local Time) from EHVK Reporting Station
Overcast Overcast  
Wind Chill: 52°   Ceiling: 3400
Heat Index: 52°   Visibility: 6mi
Dew Point: 50°   Wind: 10mph
Humidity: 94%   Direction: 180°S
Pressure: 30.09"   Gusts: NA
Location:  51.7°N, 5.68°E
Report Text: EHVK 241125Z AUTO 18009KT 9999 BKN034 OVC038 11/10 Q1019 BLU 18008KT 9999 BKN040
Loading
Personal Weather Stations






























Interactive Weather Map
Tropical Storm Tracking
New forecast layout! Learn more

10-Day Weather Forecast

Advertisements
Track Severe Weather on mobile